createdAt,value
2023-01-07T00:01:28.227Z,97524.56
2023-01-07T00:03:56.533Z,97517.78
2023-01-07T00:06:27.337Z,97506.66
2023-01-07T00:08:55.517Z,97507.38
2023-01-07T00:11:24.951Z,97503.19
2023-01-07T00:13:53.264Z,97507.97
2023-01-07T00:16:21.660Z,97506.53
2023-01-07T00:18:48.877Z,97505.09
2023-01-07T00:21:17.077Z,97497.44
2023-01-07T00:23:44.774Z,97499.59
2023-01-07T00:26:17.327Z,97496.72
2023-01-07T00:28:45.559Z,97497.44
2023-01-07T00:31:18.190Z,97487.78
2023-01-07T00:34:07.400Z,97491.94
2023-01-07T00:36:37.458Z,97489.78
2023-01-07T00:39:15.069Z,97487.78
2023-01-07T00:42:02.043Z,97488.34
2023-01-07T00:44:29.588Z,97475.94
2023-01-07T00:46:56.348Z,97475.22
2023-01-07T00:49:24.564Z,97467.00
2023-01-07T00:51:52.078Z,97462.81
2023-01-07T00:54:20.292Z,97462.81
2023-01-07T00:56:47.021Z,97461.38
2023-01-07T00:59:13.952Z,97468.16
2023-01-07T01:01:42.656Z,97455.16
2023-01-07T01:04:09.549Z,97453.72
2023-01-07T01:06:36.453Z,97455.03
2023-01-07T01:09:03.220Z,97445.50
2023-01-07T01:11:29.923Z,97441.31
2023-01-07T01:13:56.669Z,97439.88
2023-01-07T01:16:23.427Z,97435.69
2023-01-07T01:18:50.414Z,97437.72
2023-01-07T01:21:17.348Z,97431.50
2023-01-07T01:23:44.246Z,97434.25
2023-01-07T01:26:14.085Z,97430.06
2023-01-07T01:28:41.149Z,97431.50
2023-01-07T01:31:09.355Z,97437.59
2023-01-07T01:33:48.316Z,97430.66
2023-01-07T01:36:15.146Z,97435.44
2023-01-07T01:38:43.006Z,97429.94
2023-01-07T01:41:10.139Z,97442.19
2023-01-07T01:43:42.309Z,97431.81
2023-01-07T01:46:13.635Z,97427.78
2023-01-07T01:48:46.260Z,97422.16
2023-01-07T01:51:13.721Z,97426.91
2023-01-07T01:53:40.529Z,97424.91
2023-01-07T01:56:36.006Z,97427.50
2023-01-07T01:59:07.022Z,97420.00
2023-01-07T02:01:36.874Z,97421.28
2023-01-07T02:04:12.266Z,97412.34
2023-01-07T02:06:44.252Z,97419.84
2023-01-07T02:09:12.743Z,97419.84
2023-01-07T02:11:44.181Z,97419.13
2023-01-07T02:14:24.927Z,97412.81
2023-01-07T02:16:57.891Z,97414.25
2023-01-07T02:19:44.879Z,97418.28
2023-01-07T02:22:41.404Z,97405.88
2023-01-07T02:25:43.220Z,97404.44
2023-01-07T02:28:25.166Z,97399.53
2023-01-07T02:31:29.112Z,97398.09
2023-01-07T02:34:13.427Z,97393.22
2023-01-07T02:36:43.105Z,97391.19
2023-01-07T02:39:23.375Z,97389.72
2023-01-07T02:41:58.360Z,97386.97
2023-01-07T02:44:54.161Z,97389.00
2023-01-07T02:47:38.927Z,97389.00
2023-01-07T02:50:07.499Z,97377.91
2023-01-07T02:52:36.321Z,97380.66
2023-01-07T02:55:07.508Z,97377.91
2023-01-07T02:57:52.927Z,97374.47
2023-01-07T03:00:46.118Z,97371.00
2023-01-07T03:03:22.338Z,97368.25
2023-01-07T03:06:02.037Z,97359.88
2023-01-07T03:08:58.799Z,97359.31
2023-01-07T03:11:31.044Z,97354.41
2023-01-07T03:14:10.655Z,97350.94
2023-01-07T03:16:40.490Z,97346.75
2023-01-07T03:19:35.757Z,97341.28
2023-01-07T03:22:14.008Z,97337.81
2023-01-07T03:24:43.373Z,97328.88
2023-01-07T03:27:10.165Z,97324.72
2023-01-07T03:29:37.022Z,97330.91
2023-01-07T03:32:11.465Z,97319.94
2023-01-07T03:34:39.033Z,97317.19
2023-01-07T03:37:14.920Z,97317.78
2023-01-07T03:39:44.425Z,97315.78
2023-01-07T03:42:31.093Z,97316.50
2023-01-07T03:44:59.345Z,97306.06
2023-01-07T03:47:29.308Z,97306.06
2023-01-07T03:49:56.126Z,97311.53
2023-01-07T03:52:23.260Z,97306.06
2023-01-07T03:54:50.362Z,97300.56
2023-01-07T03:57:17.609Z,97293.66
2023-01-07T03:59:44.473Z,97295.69
2023-01-07T04:02:11.437Z,97283.28
2023-01-07T04:04:38.628Z,97291.50
2023-01-07T04:07:05.908Z,97288.19
2023-01-07T04:09:32.685Z,97281.28
2023-01-07T04:11:59.410Z,97290.22
2023-01-07T04:14:26.403Z,97290.09
2023-01-07T04:16:53.219Z,97288.06
2023-01-07T04:19:20.103Z,97281.16
2023-01-07T04:21:46.847Z,97279.72
2023-01-07T04:24:14.230Z,97274.22
2023-01-07T04:26:42.193Z,97274.94
2023-01-07T04:29:09.020Z,97268.00
2023-01-07T04:31:35.726Z,97266.00
2023-01-07T04:34:02.516Z,97265.25
2023-01-07T04:36:29.389Z,97259.06
2023-01-07T04:38:56.595Z,97252.88
2023-01-07T04:41:23.422Z,97249.41
2023-01-07T04:43:50.629Z,97243.94
2023-01-07T04:46:17.425Z,97249.41
2023-01-07T04:48:44.368Z,97240.47
2023-01-07T04:51:11.349Z,97237.72
2023-01-07T04:53:38.877Z,97242.50
2023-01-07T04:56:06.448Z,97234.28
2023-01-07T04:58:33.912Z,97231.41
2023-01-07T05:01:03.775Z,97236.31
2023-01-07T05:03:34.639Z,97234.88
2023-01-07T05:06:01.709Z,97230.09
2023-01-07T05:08:29.139Z,97232.13
2023-01-07T05:10:56.550Z,97228.69
2023-01-07T05:13:31.945Z,97223.91
2023-01-07T05:16:00.543Z,97223.91
2023-01-07T05:18:27.349Z,97220.44
2023-01-07T05:20:54.433Z,97219.00
2023-01-07T05:23:21.301Z,97218.44
2023-01-07T05:25:49.628Z,97214.97
2023-01-07T05:28:17.602Z,97210.22
2023-01-07T05:30:47.179Z,97207.31
2023-01-07T05:33:14.108Z,97206.75
2023-01-07T05:35:41.671Z,97208.19
2023-01-07T05:38:08.476Z,97209.50
2023-01-07T05:40:35.225Z,97202.69
2023-01-07T05:43:02.295Z,97203.41
2023-01-07T05:45:29.338Z,97199.25
2023-01-07T05:47:56.175Z,97199.25
2023-01-07T05:50:22.845Z,97198.53
2023-01-07T05:52:51.275Z,97196.50
2023-01-07T05:55:18.233Z,97190.31
2023-01-07T05:57:45.000Z,97197.22
2023-01-07T06:00:12.334Z,97193.75
2023-01-07T06:02:39.366Z,97197.94
2023-01-07T06:05:06.526Z,97198.66
2023-01-07T06:07:33.331Z,97194.47
2023-01-07T06:10:01.860Z,97180.78
2023-01-07T06:12:30.060Z,97177.44
2023-01-07T06:14:56.796Z,97176.00
2023-01-07T06:17:23.759Z,97180.78
2023-01-07T06:19:50.573Z,97176.72
2023-01-07T06:22:17.398Z,97178.75
2023-01-07T06:24:44.079Z,97172.56
2023-01-07T06:27:11.220Z,97171.84
2023-01-07T06:29:38.037Z,97171.97
2023-01-07T06:32:05.238Z,97169.22
2023-01-07T06:34:32.080Z,97178.03
2023-01-07T06:36:58.852Z,97173.59
2023-01-07T06:39:27.172Z,97173.38
2023-01-07T06:41:54.147Z,97163.38
2023-01-07T06:44:20.946Z,97160.97
2023-01-07T06:46:47.778Z,97155.41
2023-01-07T06:49:15.311Z,97144.38
2023-01-07T06:51:42.069Z,97133.44
2023-01-07T06:54:08.799Z,97118.50
2023-01-07T06:56:35.597Z,97126.16
2023-01-07T06:59:02.275Z,97119.72
2023-01-07T07:01:29.536Z,97123.63
2023-01-07T07:03:56.339Z,97114.25
2023-01-07T07:06:23.180Z,97108.63
2023-01-07T07:08:49.936Z,97100.44
2023-01-07T07:11:16.809Z,97103.31
2023-01-07T07:13:43.562Z,97103.75
2023-01-07T07:16:10.383Z,97107.22
2023-01-07T07:18:37.138Z,97107.22
2023-01-07T07:21:04.015Z,97108.63
2023-01-07T07:23:30.667Z,97102.16
2023-01-07T07:25:57.431Z,97101.31
2023-01-07T07:28:24.119Z,97097.16
2023-01-07T07:30:51.961Z,97090.38
2023-01-07T07:33:19.663Z,97097.28
2023-01-07T07:35:47.035Z,97091.69
2023-01-07T07:38:13.863Z,97088.78
2023-01-07T07:40:40.886Z,97088.94
2023-01-07T07:43:11.820Z,97080.16
2023-01-07T07:45:41.105Z,97087.50
2023-01-07T07:48:09.286Z,97075.41
2023-01-07T07:50:36.396Z,97068.34
2023-01-07T07:53:03.311Z,97071.25
2023-01-07T07:55:30.117Z,97065.06
2023-01-07T07:57:58.422Z,97063.75
2023-01-07T08:00:25.642Z,97063.16
2023-01-07T08:02:52.674Z,97063.88
2023-01-07T08:05:19.552Z,97061.91
2023-01-07T08:07:46.297Z,97053.13
2023-01-07T08:10:13.013Z,97060.63
2023-01-07T08:12:39.936Z,97052.84
2023-01-07T08:15:08.270Z,97049.69
2023-01-07T08:17:36.319Z,97047.38
2023-01-07T08:20:07.521Z,97045.78
2023-01-07T08:22:35.087Z,97037.88
2023-01-07T08:25:01.981Z,97040.59
2023-01-07T08:27:29.440Z,97043.19
2023-01-07T08:29:56.604Z,97047.50
2023-01-07T08:32:23.565Z,97035.28
2023-01-07T08:34:50.819Z,97040.31
2023-01-07T08:37:17.932Z,97040.00
2023-01-07T08:39:44.700Z,97037.84
2023-01-07T08:42:11.516Z,97027.19
2023-01-07T08:44:38.227Z,97041.28
2023-01-07T08:47:05.130Z,97030.19
2023-01-07T08:49:32.181Z,97034.38
2023-01-07T08:51:58.925Z,97027.72
2023-01-07T08:54:25.687Z,97032.91
2023-01-07T08:56:52.461Z,97029.72
2023-01-07T08:59:19.140Z,97022.66
2023-01-07T09:01:46.031Z,97021.63
2023-01-07T09:04:12.834Z,97017.75
2023-01-07T09:06:39.689Z,97015.53
2023-01-07T09:09:06.485Z,97008.31
2023-01-07T09:11:33.330Z,97006.84
2023-01-07T09:14:00.098Z,97015.00
2023-01-07T09:16:26.893Z,97007.50
2023-01-07T09:18:53.715Z,97005.94
2023-01-07T09:21:24.356Z,97006.91
2023-01-07T09:24:01.477Z,97003.19
2023-01-07T09:26:28.267Z,97000.13
2023-01-07T09:28:54.954Z,96998.97
2023-01-07T09:31:22.610Z,96992.75
2023-01-07T09:33:50.879Z,96985.75
2023-01-07T09:36:17.726Z,96986.00
2023-01-07T09:38:44.741Z,96991.28
2023-01-07T09:41:24.310Z,96977.84
2023-01-07T09:44:00.972Z,96979.66
2023-01-07T09:46:29.529Z,96980.78
2023-01-07T09:49:01.127Z,96991.19
2023-01-07T09:51:34.088Z,96982.75
2023-01-07T09:54:03.677Z,96988.34
2023-01-07T09:56:32.857Z,96979.91
2023-01-07T09:59:06.150Z,96976.41
2023-01-07T10:02:19.401Z,96975.13
2023-01-07T10:05:05.719Z,96973.72
2023-01-07T10:07:41.134Z,96969.91
2023-01-07T10:10:23.012Z,96961.44
2023-01-07T10:13:11.499Z,96973.34
2023-01-07T10:16:01.760Z,96963.09
2023-01-07T10:18:53.936Z,96959.41
2023-01-07T10:21:49.538Z,96949.88
2023-01-07T10:24:27.657Z,96958.34
2023-01-07T10:27:01.205Z,96936.41
2023-01-07T10:29:40.113Z,96947.22
2023-01-07T10:32:30.258Z,96947.38
2023-01-07T10:34:57.770Z,96941.88
2023-01-07T10:37:29.348Z,96934.94
2023-01-07T10:40:17.500Z,96936.50
2023-01-07T10:43:12.133Z,96926.25
2023-01-07T10:46:00.330Z,96928.00
2023-01-07T10:48:42.351Z,96917.03
2023-01-07T10:51:27.182Z,96911.81
2023-01-07T10:53:59.529Z,96916.44
2023-01-07T10:56:37.411Z,96896.84
2023-01-07T10:59:04.892Z,96902.34
2023-01-07T11:01:35.074Z,96892.84
2023-01-07T11:04:02.164Z,96892.63
2023-01-07T11:06:53.943Z,96878.22
2023-01-07T11:09:25.831Z,96898.47
2023-01-07T11:11:53.641Z,96893.25
2023-01-07T11:14:23.245Z,96890.38
2023-01-07T11:16:55.677Z,96888.69
2023-01-07T11:19:23.814Z,96885.72
2023-01-07T11:21:52.204Z,96882.63
2023-01-07T11:24:19.048Z,96879.88
2023-01-07T11:26:46.389Z,96873.66
2023-01-07T11:29:16.150Z,96872.34
2023-01-07T11:31:49.523Z,96869.97
2023-01-07T11:34:22.557Z,96862.31
2023-01-07T11:36:49.702Z,96867.28
2023-01-07T11:39:25.538Z,96853.84
2023-01-07T11:41:53.662Z,96855.50
2023-01-07T11:44:20.615Z,96855.59
2023-01-07T11:46:50.806Z,96843.91
2023-01-07T11:49:34.436Z,96842.81
2023-01-07T11:52:03.265Z,96835.06
2023-01-07T11:54:35.294Z,96832.63
2023-01-07T11:57:32.545Z,96830.97
2023-01-07T12:00:17.997Z,96823.84
2023-01-07T12:03:14.553Z,96816.59
2023-01-07T12:05:45.209Z,96809.66
2023-01-07T12:08:21.487Z,96801.44
2023-01-07T12:10:54.972Z,96802.31
2023-01-07T12:13:26.124Z,96798.25
2023-01-07T12:16:26.957Z,96794.19
2023-01-07T12:19:10.092Z,96789.53
2023-01-07T12:21:57.256Z,96793.84
2023-01-07T12:24:47.346Z,96782.88
2023-01-07T12:27:22.803Z,96781.56
2023-01-07T12:29:55.678Z,96780.34
2023-01-07T12:32:50.378Z,96778.75
2023-01-07T12:35:27.351Z,96757.63
2023-01-07T12:38:09.482Z,96772.78
2023-01-07T12:40:40.279Z,96769.56
2023-01-07T12:43:28.405Z,96759.38
2023-01-07T12:46:01.056Z,96758.91
2023-01-07T12:48:42.681Z,96759.84
2023-01-07T12:51:18.829Z,96770.09
2023-01-07T12:53:53.442Z,96764.06
2023-01-07T12:56:24.252Z,96764.00
2023-01-07T12:58:56.109Z,96762.94
2023-01-07T13:01:30.793Z,96749.94
2023-01-07T13:04:33.203Z,96753.41
2023-01-07T13:07:05.717Z,96757.31
2023-01-07T13:10:00.021Z,96752.19
2023-01-07T13:12:46.230Z,96750.28
2023-01-07T13:15:36.481Z,96752.25
2023-01-07T13:18:13.359Z,96756.81
2023-01-07T13:20:52.273Z,96766.34
2023-01-07T13:23:24.452Z,96765.88
2023-01-07T13:26:01.553Z,96768.72
2023-01-07T13:28:53.080Z,96760.09
2023-01-07T13:31:42.702Z,96756.75
2023-01-07T13:34:13.854Z,96756.41
2023-01-07T13:37:12.376Z,96750.13
2023-01-07T13:40:11.921Z,96751.22
2023-01-07T13:42:45.415Z,96753.25
2023-01-07T13:45:17.859Z,96748.19
2023-01-07T13:47:53.457Z,96752.72
2023-01-07T13:50:24.331Z,96761.03
2023-01-07T13:53:02.975Z,96759.09
2023-01-07T13:55:32.478Z,96757.91
2023-01-07T13:57:59.265Z,96751.88
2023-01-07T14:00:42.110Z,96753.19
2023-01-07T14:03:26.886Z,96761.19
2023-01-07T14:06:18.783Z,96745.59
2023-01-07T14:09:11.190Z,96741.94
2023-01-07T14:11:42.193Z,96736.78
2023-01-07T14:14:38.252Z,96734.75
2023-01-07T14:17:22.954Z,96734.41
2023-01-07T14:20:03.771Z,96727.38
2023-01-07T14:22:48.905Z,96723.94
2023-01-07T14:25:34.605Z,96727.28
2023-01-07T14:28:40.432Z,96723.28
2023-01-07T14:31:20.193Z,96723.13
2023-01-07T14:33:50.419Z,96720.44
2023-01-07T14:36:17.321Z,96707.47
2023-01-07T14:38:58.157Z,96710.69
2023-01-07T14:41:25.418Z,96715.75
2023-01-07T14:44:28.075Z,96708.59
2023-01-07T14:46:54.955Z,96713.47
2023-01-07T14:49:46.938Z,96706.72
2023-01-07T14:52:32.712Z,96709.81
2023-01-07T14:55:19.927Z,96713.88
2023-01-07T14:58:06.443Z,96714.47
2023-01-07T15:00:48.357Z,96712.56
2023-01-07T15:03:29.799Z,96712.81
2023-01-07T15:06:20.283Z,96709.81
2023-01-07T15:09:41.325Z,96699.47
2023-01-07T15:12:44.124Z,96699.69
2023-01-07T15:15:41.619Z,96695.63
2023-01-07T15:18:09.834Z,96698.34
2023-01-07T15:20:48.585Z,96696.03
2023-01-07T15:23:47.275Z,96698.16
2023-01-07T15:26:19.900Z,96689.66
2023-01-07T15:29:05.582Z,96686.13
2023-01-07T15:31:39.128Z,96683.84
2023-01-07T15:34:05.889Z,96682.03
2023-01-07T15:36:33.171Z,96671.72
2023-01-07T15:39:01.949Z,96677.88
2023-01-07T15:41:30.075Z,96676.66
2023-01-07T15:43:58.066Z,96665.22
2023-01-07T15:46:25.686Z,96677.91
2023-01-07T15:49:04.851Z,96666.44
2023-01-07T15:51:32.517Z,96679.50
2023-01-07T15:54:00.469Z,96676.66
2023-01-07T15:56:27.924Z,96677.25
2023-01-07T15:58:54.748Z,96673.66
2023-01-07T16:01:24.991Z,96671.72
2023-01-07T16:03:54.948Z,96665.47
2023-01-07T16:06:30.795Z,96661.19
2023-01-07T16:08:58.666Z,96655.06
2023-01-07T16:11:28.013Z,96655.09
2023-01-07T16:14:04.780Z,96652.81
2023-01-07T16:16:32.626Z,96650.56
2023-01-07T16:19:01.141Z,96651.25
2023-01-07T16:21:40.944Z,96651.00
2023-01-07T16:24:08.085Z,96655.19
2023-01-07T16:26:41.261Z,96655.66
2023-01-07T16:29:38.325Z,96654.06
2023-01-07T16:32:07.100Z,96645.44
2023-01-07T16:34:33.995Z,96645.53
2023-01-07T16:37:03.220Z,96652.66
2023-01-07T16:39:40.373Z,96648.09
2023-01-07T16:42:20.589Z,96652.34
2023-01-07T16:44:51.141Z,96645.03
2023-01-07T16:47:22.466Z,96659.16
2023-01-07T16:49:51.431Z,96660.69
2023-01-07T16:52:19.688Z,96661.81
2023-01-07T16:54:47.613Z,96655.44
2023-01-07T16:57:14.537Z,96652.47
2023-01-07T16:59:49.755Z,96645.94
2023-01-07T17:02:29.966Z,96647.09
2023-01-07T17:05:20.271Z,96643.41
2023-01-07T17:07:58.811Z,96647.84
2023-01-07T17:10:29.652Z,96634.97
2023-01-07T17:13:15.686Z,96641.31
2023-01-07T17:15:43.422Z,96642.28
2023-01-07T17:18:13.518Z,96635.59
2023-01-07T17:21:00.183Z,96635.75
2023-01-07T17:23:27.131Z,96632.50
2023-01-07T17:26:09.138Z,96634.69
2023-01-07T17:28:43.421Z,96632.66
2023-01-07T17:31:10.404Z,96638.38
2023-01-07T17:33:37.374Z,96646.69
2023-01-07T17:36:04.301Z,96642.66
2023-01-07T17:38:31.084Z,96639.31
2023-01-07T17:40:57.996Z,96637.44
2023-01-07T17:43:34.895Z,96635.41
2023-01-07T17:46:06.155Z,96634.09
2023-01-07T17:48:33.775Z,96636.22
2023-01-07T17:51:01.427Z,96624.69
2023-01-07T17:53:31.601Z,96621.25
2023-01-07T17:56:00.977Z,96617.22
2023-01-07T17:58:33.397Z,96623.38
2023-01-07T18:01:01.792Z,96626.94
2023-01-07T18:03:29.196Z,96627.66
2023-01-07T18:05:56.014Z,96628.41
2023-01-07T18:08:22.901Z,96631.84
2023-01-07T18:11:10.230Z,96631.25
2023-01-07T18:13:37.333Z,96631.97
2023-01-07T18:16:04.407Z,96618.97
2023-01-07T18:18:31.283Z,96623.84
2023-01-07T18:20:58.553Z,96615.66
2023-01-07T18:23:25.580Z,96620.53
2023-01-07T18:25:52.318Z,96612.34
2023-01-07T18:28:19.140Z,96617.91
2023-01-07T18:30:45.892Z,96619.34
2023-01-07T18:33:12.876Z,96617.31
2023-01-07T18:35:43.016Z,96628.97
2023-01-07T18:38:14.339Z,96626.97
2023-01-07T18:40:42.085Z,96620.19
2023-01-07T18:43:17.169Z,96629.13
2023-01-07T18:45:47.590Z,96620.28
2023-01-07T18:48:16.107Z,96620.44
2023-01-07T18:50:47.354Z,96620.53
2023-01-07T18:53:24.725Z,96596.72
2023-01-07T18:56:01.255Z,96606.50
2023-01-07T18:58:28.260Z,96595.66
2023-01-07T19:00:55.037Z,96596.34
2023-01-07T19:03:21.884Z,96603.38
2023-01-07T19:05:48.578Z,96608.41
2023-01-07T19:08:15.296Z,96595.41
2023-01-07T19:10:42.532Z,96602.31
2023-01-07T19:13:10.211Z,96609.34
2023-01-07T19:15:38.682Z,96611.47
2023-01-07T19:18:05.731Z,96606.72
2023-01-07T19:20:33.474Z,96614.31
2023-01-07T19:23:01.334Z,96606.25
2023-01-07T19:25:29.551Z,96614.56
2023-01-07T19:27:57.193Z,96616.69
2023-01-07T19:30:24.306Z,96603.84
2023-01-07T19:32:53.141Z,96623.13
2023-01-07T19:35:20.255Z,96606.81
2023-01-07T19:37:47.191Z,96603.47
2023-01-07T19:40:14.006Z,96602.28
2023-01-07T19:42:40.816Z,96596.22
2023-01-07T19:45:08.142Z,96610.00
2023-01-07T19:47:35.447Z,96597.75
2023-01-07T19:50:02.378Z,96603.34
2023-01-07T19:52:29.330Z,96604.88
2023-01-07T19:54:56.173Z,96592.59
2023-01-07T19:57:23.104Z,96585.94
2023-01-07T19:59:49.802Z,96592.22
2023-01-07T20:02:17.812Z,96605.34
2023-01-07T20:04:44.661Z,96595.19
2023-01-07T20:07:11.486Z,96600.09
2023-01-07T20:09:38.288Z,96602.94
2023-01-07T20:12:05.419Z,96596.25
2023-01-07T20:14:32.075Z,96590.22
2023-01-07T20:16:58.928Z,96586.16
2023-01-07T20:19:27.215Z,96601.41
2023-01-07T20:21:54.045Z,96602.81
2023-01-07T20:24:20.715Z,96603.53
2023-01-07T20:26:47.835Z,96612.56
2023-01-07T20:29:14.565Z,96610.66
2023-01-07T20:31:41.535Z,96599.09
2023-01-07T20:34:08.310Z,96606.13
2023-01-07T20:36:35.082Z,96598.72
2023-01-07T20:39:05.759Z,96612.53
2023-01-07T20:41:33.875Z,96610.63
2023-01-07T20:44:02.490Z,96594.97
2023-01-07T20:46:30.432Z,96599.16
2023-01-07T20:48:57.434Z,96589.63
2023-01-07T20:51:24.275Z,96607.50
2023-01-07T20:53:51.024Z,96600.81
2023-01-07T20:56:19.923Z,96595.44
2023-01-07T20:58:47.437Z,96601.03
2023-01-07T21:01:17.118Z,96606.63
2023-01-07T21:03:44.496Z,96602.66
2023-01-07T21:06:13.195Z,96613.06
2023-01-07T21:08:40.253Z,96600.88
2023-01-07T21:11:15.486Z,96587.06
2023-01-07T21:13:42.716Z,96598.84
2023-01-07T21:16:10.138Z,96596.78
2023-01-07T21:18:37.187Z,96586.66
2023-01-07T21:21:10.335Z,96579.16
2023-01-07T21:23:37.214Z,96579.84
2023-01-07T21:26:04.265Z,96582.69
2023-01-07T21:28:32.388Z,96577.34
2023-01-07T21:31:09.347Z,96569.91
2023-01-07T21:33:45.744Z,96570.63
2023-01-07T21:36:17.127Z,96568.72
2023-01-07T21:38:56.220Z,96572.28
2023-01-07T21:41:24.730Z,96574.53
2023-01-07T21:43:51.550Z,96575.22
2023-01-07T21:46:18.379Z,96580.09
2023-01-07T21:48:47.073Z,96569.13
2023-01-07T21:51:25.888Z,96568.41
2023-01-07T21:53:55.935Z,96571.28
2023-01-07T21:56:23.860Z,96572.72
2023-01-07T21:58:50.558Z,96574.22
2023-01-07T22:01:18.057Z,96565.28
2023-01-07T22:03:46.795Z,96567.31
2023-01-07T22:06:21.933Z,96564.00
2023-01-07T22:08:49.314Z,96559.22
2023-01-07T22:11:17.675Z,96562.66
2023-01-07T22:13:44.451Z,96557.88
2023-01-07T22:16:11.258Z,96564.78
2023-01-07T22:18:38.088Z,96571.00
2023-01-07T22:21:04.863Z,96559.41
2023-01-07T22:23:31.770Z,96545.81
2023-01-07T22:26:05.621Z,96548.53
2023-01-07T22:28:34.032Z,96546.50
2023-01-07T22:31:03.490Z,96546.59
2023-01-07T22:33:30.256Z,96537.78
2023-01-07T22:35:57.092Z,96533.00
2023-01-07T22:38:25.930Z,96538.50
2023-01-07T22:40:53.439Z,96528.31
2023-01-07T22:43:20.957Z,96535.13
2023-01-07T22:46:04.525Z,96543.28
2023-01-07T22:48:34.713Z,96528.09
2023-01-07T22:51:08.289Z,96533.00
2023-01-07T22:53:35.389Z,96533.81
2023-01-07T22:56:03.017Z,96522.13
2023-01-07T22:58:29.884Z,96534.53
2023-01-07T23:00:57.179Z,96522.84
2023-01-07T23:03:24.460Z,96505.03
2023-01-07T23:05:51.581Z,96507.19
2023-01-07T23:08:18.493Z,96509.94
2023-01-07T23:10:45.327Z,96520.91
2023-01-07T23:13:12.624Z,96524.47
2023-01-07T23:15:39.840Z,96512.78
2023-01-07T23:18:07.885Z,96503.94
2023-01-07T23:20:38.076Z,96511.34
2023-01-07T23:23:05.628Z,96505.88
2023-01-07T23:25:32.512Z,96498.25
2023-01-07T23:27:59.289Z,96485.25
2023-01-07T23:30:25.986Z,96483.91
2023-01-07T23:32:52.806Z,96473.66
2023-01-07T23:35:19.560Z,96482.59
2023-01-07T23:37:46.598Z,96473.75
2023-01-07T23:40:13.589Z,96467.66
2023-01-07T23:42:40.400Z,96466.34
2023-01-07T23:45:07.661Z,96470.50
2023-01-07T23:47:34.434Z,96466.44
2023-01-07T23:50:01.080Z,96462.25
2023-01-07T23:52:27.884Z,96458.19
2023-01-07T23:54:54.596Z,96456.16
2023-01-07T23:57:21.410Z,96452.81
2023-01-07T23:59:48.823Z,96452.09
